Aeroporto :
LOGIN :

Iscrizione | Disclaimer

   EN    FR    IT 

 










Sommario :    VFR   VFR Marginale   IFR   IFR Intensivo   IFR Molto Intensivo
Visibilità : 
Base nubi : 
>= 8 km
>= 3000ft
5 / 8 km
1000 / 3000 ft
1500m / 5 km
500 / 1000 ft
800 / 1500m
200 / 500 ft
< 800m
< 200 ft
Simboli :   Temporali  Nebbia  Neve Forte  Precipitazioni Forti  Vento > 20 kt
SIGMETs :   Varie  Temporali  Ghiacco  Turbolenza  Onda orograficha  Ceneri Vulcaniche






- Altitudine del aeroporto : 124 ft
- Codice IATA : RNS


LFRN - Rennes

ULTIMO METAR :
  • 211900Z AUTO 06007KT CAVOK 03/M01 Q1038 NOSIG

METARs OBSOLETI :
  • 211830Z AUTO 04007KT CAVOK 04/M00 Q1038 NOSIG
  • 211800Z AUTO 04008KT CAVOK 04/M00 Q1038 NOSIG
  • 211730Z AUTO 02005KT CAVOK 04/M00 Q1038 NOSIG
  • 211700Z AUTO 05008KT 020V080 CAVOK 04/00 Q1038 NOSIG
  • 211630Z AUTO 06006KT CAVOK 05/M00 Q1038 NOSIG

TAF TAF LFRN
Valido dal 21 a 18 ore il 22 a 18 ore UTC


211700Z 2118/2218 03006KT CAVOK
ATIS : +33 2 99 67 72 50



MetMap, La meteo Aeronautica in un colpo d'occhio ! - Copyright ORBIFLY Dicembre 2007 - Disclaimer

ORBIFLY MET'MAP TEAM :

Programmazione e sviluppo : Alexandra Zaïnal
Concezione : Baudouin d'Aumeries
Aiuto per la programmazione : Marc-Olivier Méhu
Supporto tecnico e logistico : Manuel Goepfert
Aiuto per la traduzione : Arnaldo La Scala

Contatto : metmap@orbifly.com




FONTI E CREDITI :

   NOAA